Oakland, Arkansas
Current Conditions -  °F | °C
As of 11:53 PM on Wednesday 22 Oct 2014 (Local Time) from KBPK Reporting Station
Clear Clear  
Wind Chill: 11°   Ceiling: Unl
Heat Index: 11°   Visibility: 10mi
Dew Point:   Wind: 3mph
Humidity: 71%   Direction: 120°ESE
Pressure: 30.2"   Gusts: NA
Location:  36.46°N, 92.57°W
Report Text: KBPK 230453Z AUTO 12003KT 10SM CLR 11/06 A3020 RMK AO2 SLP222 T01060056
Loading
Personal Weather Stations






























Interactive Weather Map
Tropical Storm Tracking
New forecast layout! Learn more

10-Day Weather Forecast

Advertisements
Track Severe Weather on mobile